This is the latest recevied weather packets stored in our database for station/object K1WJY. If no packets are shown the sender has not sent any weather packets the latest 10 day(s).
| Time | Temp. | Humidity | Pressure | Rain* | Wind** | Luminosity | Snow |
|---|---|---|---|---|---|---|---|
| 1787752359 | 24.44° C | 73% | 1018.7 hPa | 0 mm | - | 650 W/m² | - |
| 1787752058 | 23.89° C | 75% | 1018.4 hPa | 0 mm | - | 619 W/m² | - |
| 1787751752 | 24.44° C | 73% | 1018.6 hPa | 0 mm | - | 619 W/m² | - |
| 1787751448 | 23.89° C | 73% | 1018.5 hPa | 0 mm | - | 613 W/m² | - |
| 1787751143 | 23.89° C | 72% | 1018.7 hPa | 0 mm | - | 583 W/m² | - |
| 1787750838 | 23.89° C | 75% | 1018.7 hPa | 0 mm | - | 572 W/m² | - |
| 1787750534 | 23.33° C | 76% | 1018.6 hPa | 0 mm | - | 546 W/m² | - |
| 1787750228 | 22.78° C | 77% | 1018.4 hPa | 0 mm | - | 541 W/m² | - |
| 1787749924 | 22.78° C | 78% | 1018.4 hPa | 0 mm | - | 507 W/m² | - |
| 1787749620 | 22.78° C | 78% | 1018.4 hPa | 0 mm | - | 468 W/m² | - |
| 1787749315 | 22.78° C | 79% | 1018.4 hPa | 0 mm | - | 431 W/m² | - |
| 1787749010 | 22.22° C | 81% | 1018.4 hPa | 0 mm | - | 410 W/m² | - |
| 1787748704 | 22.22° C | 81% | 1018.5 hPa | 0 mm | - | 394 W/m² | - |
| 1787748399 | 21.67° C | 83% | 1018.2 hPa | 0 mm | - | 361 W/m² | - |
| 1787748096 | 22.22° C | 82% | 1018.1 hPa | 0 mm | - | 333 W/m² | - |
| 1787747796 | 22.78° C | 82% | 1018.1 hPa | 0 mm | - | 326 W/m² | - |
| 1787747491 | 21.67° C | 84% | 1018.3 hPa | 0 mm | - | 313 W/m² | - |
| 1787747191 | 22.22° C | 83% | 1018.3 hPa | 0 mm | - | 300 W/m² | - |
| 1787746888 | 21.11° C | 86% | 1018.4 hPa | 0 mm | - | 280 W/m² | - |
| 1787746587 | 20.56° C | 85% | 1018.3 hPa | 0 mm | - | 267 W/m² | - |
| 1787746287 | 20.56° C | 87% | 1018.4 hPa | 0 mm | - | 275 W/m² | - |
| 1787745985 | 20.56° C | 85% | 1018.2 hPa | 0 mm | - | 448 W/m² | - |
| 1787745680 | 20.56° C | 88% | 1018 hPa | 0 mm | - | 206 W/m² | - |
| 1787745374 | 21.11° C | 87% | 1018.1 hPa | 0 mm | - | 188 W/m² | - |
| 1787745073 | 20.56° C | 86% | 1018.1 hPa | 0 mm | - | 189 W/m² | - |
* Rain latest hour (hover to see other rain measurements)
** Current wind speed in m/s (hover to see current wind gust speed)